Seaexpressii — HO4619 — position and weather

sailwx.info

Track history (hours):
 
Tides and Currents Weather Stations Pressure Air Temp Water Temp Dewpoint Dewpoint Depression Visibility Wind Speed Wind Dir Waves Ship Positions

Seaexpressii

Last reported at 2015-May-05 19:22 UTC. Time now 2015-May-06 07:26 UTC.
Position N 26°05' W 079°41'.

Length 37 m; draft 2.1 m.

Type: Ship (hazmat cat A). MMSI: 356449000.

Date/timePositionNaut miles runAvg speedWind from/ knotsBaromVisibWave heightAir tempDewpointWater temp
2015-May-05 19:22N 26°05' W 079°41'7 8.9
2015-May-05 18:33N 26°05' W 079°49'9 9.1
2015-May-05 17:33N 26°05' W 079°59'8 7.5
2015-May-05 16:33N 26°04' W 080°07'0 0.4
2015-May-05 15:33N 26°04' W 080°08'0 0.0
2015-May-05 14:33N 26°04' W 080°08'0 0.0
2015-May-05 13:33N 26°04' W 080°08'0 0.0
2015-May-05 12:33N 26°04' W 080°08'0 0.0
2015-May-05 11:33N 26°04' W 080°08'0 0.0
2015-May-05 10:33N 26°04' W 080°08'0 0.0
2015-May-05 09:33N 26°04' W 080°08'0 0.0
2015-May-05 08:33N 26°04' W 080°08'0 0.0
2015-May-05 07:33N 26°04' W 080°08'0 0.0
2015-May-05 06:32N 26°04' W 080°08'0 0.0
2015-May-05 05:33N 26°04' W 080°08'0 0.0
2015-May-05 04:33N 26°04' W 080°08'0 0.0
2015-May-05 03:33N 26°04' W 080°08'0 0.0
2015-May-05 02:33N 26°04' W 080°08'0 0.0
2015-May-05 01:33N 26°04' W 080°08'0 0.0
2015-May-05 00:33N 26°04' W 080°08'0 0.0
2015-May-04 23:33N 26°04' W 080°08'0 0.0
2015-May-04 22:33N 26°04' W 080°08'0 0.0
2015-May-04 21:33N 26°04' W 080°08'3 3.0
2015-May-04 20:33N 26°05' W 080°05'1110.6
2015-May-04 19:34N 25°59' W 079°56'1111.4
2015-May-04 18:33N 25°52' W 079°45'4 0.4
2015-May-04 07:29N 25°49' W 079°42'6 7.0
2015-May-04 06:33N 25°53' W 079°48'7 6.8
2015-May-04 05:33N 25°58' W 079°54'7 6.9
2015-May-04 04:33N 26°02' W 079°60'7 7.4
2015-May-04 03:33N 26°05' W 080°07'2 2.0
2015-May-04 02:33N 26°04' W 080°08'0 0.0
2015-May-04 01:33N 26°04' W 080°08'0 0.0
2015-May-04 00:33N 26°04' W 080°08'0 0.0
2015-May-03 23:33N 26°04' W 080°08'0 0.0
2015-May-03 22:33N 26°04' W 080°08'0 0.0
2015-May-03 21:33N 26°04' W 080°08'0 0.0
2015-May-03 20:33N 26°04' W 080°08'0 0.0
2015-May-03 19:33N 26°04' W 080°08'0 0.0
2015-May-03 18:33N 26°04' W 080°08'0 0.0
2015-May-03 17:33N 26°04' W 080°08'0 0.0
2015-May-03 16:33N 26°04' W 080°08'0 0.0
2015-May-03 15:33N 26°04' W 080°08'0 0.0
2015-May-03 14:33N 26°04' W 080°08'0 0.0
2015-May-03 13:33N 26°04' W 080°08'0 0.0
2015-May-03 12:33N 26°04' W 080°08'0 0.0
2015-May-03 11:33N 26°04' W 080°08'0 0.0
2015-May-03 10:33N 26°04' W 080°08'0 0.0
2015-May-03 09:33N 26°04' W 080°08'0 0.0
2015-May-03 08:33N 26°04' W 080°08'0 0.0
2015-May-03 07:33N 26°04' W 080°08'0 0.0
2015-May-03 06:33N 26°04' W 080°08'0 0.0
2015-May-03 05:33N 26°04' W 080°08'0 0.0
2015-May-03 04:33N 26°04' W 080°08'0 0.0
2015-May-03 03:33N 26°04' W 080°08'0 0.0
2015-May-03 02:33N 26°04' W 080°08'0 0.0
2015-May-03 01:33N 26°04' W 080°08'0 0.0
2015-May-03 00:32N 26°04' W 080°08'0 0.0
2015-May-02 23:33N 26°04' W 080°08'0 0.0
2015-May-02 22:33N 26°04' W 080°08'0 0.0
2015-May-02 21:33N 26°04' W 080°08'0 0.0
2015-May-02 20:33N 26°04' W 080°08'0 0.0
2015-May-02 19:33N 26°04' W 080°08'0 0.0
2015-May-02 18:33N 26°04' W 080°08'0 0.0
2015-May-02 17:33N 26°04' W 080°08'6 5.6
2015-May-02 16:33N 26°04' W 080°02'10 9.8
2015-May-02 15:33N 26°01' W 079°51'10 9.8
2015-May-02 14:33N 25°58' W 079°41'1110.2
2015-May-02 13:31N 25°54' W 079°30'13 0.3
2015-Apr-30 20:29N 26°05' W 079°36'9 9.4
2015-Apr-30 19:33N 26°05' W 079°46'9 9.4
2015-Apr-30 18:33N 26°05' W 079°56'9 9.5
2015-Apr-30 17:33N 26°05' W 080°07'2 1.8
2015-Apr-30 16:33N 26°04' W 080°08'0 0.0
2015-Apr-30 15:33N 26°04' W 080°08'0 0.0
2015-Apr-30 14:33N 26°04' W 080°08'0 0.0
2015-Apr-30 13:33N 26°04' W 080°08'0 0.0
2015-Apr-30 12:33N 26°04' W 080°08'3 3.1
2015-Apr-30 11:33N 26°06' W 080°05'7 6.7
2015-Apr-30 10:33N 26°03' W 079°58'10 9.9
2015-Apr-30 09:33N 26°01' W 079°48'10 9.8
2015-Apr-30 08:33N 25°58' W 079°37'5 0.1
2015-Apr-28 23:30N 25°59' W 079°42'8 8.0
2015-Apr-28 22:33N 26°01' W 079°50'9 8.7
2015-Apr-28 21:32N 26°04' W 079°60'6 6.4
2015-Apr-28 20:33N 26°04' W 080°07'1 1.0
2015-Apr-28 19:33N 26°04' W 080°08'0 0.0
2015-Apr-28 18:33N 26°04' W 080°08'0 0.0
2015-Apr-28 17:33N 26°04' W 080°08'0 0.0
2015-Apr-28 16:33N 26°04' W 080°08'0 0.0
2015-Apr-28 15:33N 26°04' W 080°08'0 0.0
2015-Apr-28 14:33N 26°04' W 080°08'0 0.0
2015-Apr-28 13:33N 26°04' W 080°08'2 2.2
2015-Apr-28 12:33N 26°06' W 080°07'1110.6
2015-Apr-28 11:33N 26°03' W 079°55'1110.7
2015-Apr-28 10:33N 25°60' W 079°44'1110.5
2015-Apr-28 09:33N 25°57' W 079°33'2510.3
2015-Apr-28 07:09N 25°50' W 079°06'10 9.8
2015-Apr-28 06:08N 25°47' W 078°55'84 9.8
2015-Apr-27 21:32N 25°50' W 077°22'12 9.6
2015-Apr-27 20:17N 25°51' W 077°09'44 5.6
2015-Apr-27 12:25N 26°34' W 077°05'100 5.8
2015-Apr-26 19:10N 26°02' W 078°51'710.7
2015-Apr-26 18:31N 26°04' W 078°58'1310.5
2015-Apr-26 17:15N 26°05' W 079°13'710.5
2015-Apr-26 16:33N 26°05' W 079°21'1110.5
2015-Apr-26 15:31N 26°05' W 079°33'1010.3
2015-Apr-26 14:33N 26°05' W 079°44'1010.3
2015-Apr-26 13:33N 26°05' W 079°56'10 9.8
2015-Apr-26 12:33N 26°06' W 080°06'2 2.3
2015-Apr-26 11:33N 26°04' W 080°08'0 0.0
2015-Apr-26 10:33N 26°04' W 080°08'0 0.0
2015-Apr-26 09:33N 26°04' W 080°08'0 0.0
2015-Apr-26 08:33N 26°04' W 080°08'0 0.0
2015-Apr-26 07:33N 26°04' W 080°08'0 0.0
2015-Apr-26 06:33N 26°04' W 080°08'0 0.0
2015-Apr-26 05:33N 26°04' W 080°08'0 0.0
2015-Apr-26 04:33N 26°04' W 080°08'0 0.0
2015-Apr-26 03:33N 26°04' W 080°08'0 0.0
2015-Apr-26 02:33N 26°04' W 080°08'0 0.0
2015-Apr-26 01:33N 26°04' W 080°08'0 0.0
2015-Apr-26 00:33N 26°04' W 080°08'0 0.0
2015-Apr-25 23:33N 26°04' W 080°08'0 0.0
2015-Apr-25 22:33N 26°04' W 080°08'0 0.0
2015-Apr-25 21:33N 26°04' W 080°08'1 1.1
2015-Apr-25 20:33N 26°04' W 080°07'8 8.4
2015-Apr-25 19:33N 26°03' W 079°57'  
Track history (hours):
 
Tides and Currents Weather Stations Pressure Air Temp Water Temp Dewpoint Dewpoint Depression Visibility Wind Speed Wind Dir Waves Ship Positions

Seaexpressii

Last reported at 2015-May-05 19:22 UTC. Time now 2015-May-06 07:26 UTC.
Position N 26°05' W 079°41'.

Length 37 m; draft 2.1 m.

Type: Ship (hazmat cat A). MMSI: 356449000.

Date/timePositionNaut miles runAvg speedWind from/ knotsBaromVisibWave heightAir tempDewpointWater temp
2015-May-05 19:22N 26°05' W 079°41'7 8.9
2015-May-05 18:33N 26°05' W 079°49'9 9.1
2015-May-05 17:33N 26°05' W 079°59'8 7.5
2015-May-05 16:33N 26°04' W 080°07'0 0.4
2015-May-05 15:33N 26°04' W 080°08'0 0.0
2015-May-05 14:33N 26°04' W 080°08'0 0.0
2015-May-05 13:33N 26°04' W 080°08'0 0.0
2015-May-05 12:33N 26°04' W 080°08'0 0.0
2015-May-05 11:33N 26°04' W 080°08'0 0.0
2015-May-05 10:33N 26°04' W 080°08'0 0.0
2015-May-05 09:33N 26°04' W 080°08'0 0.0
2015-May-05 08:33N 26°04' W 080°08'0 0.0
2015-May-05 07:33N 26°04' W 080°08'0 0.0
2015-May-05 06:32N 26°04' W 080°08'0 0.0
2015-May-05 05:33N 26°04' W 080°08'0 0.0
2015-May-05 04:33N 26°04' W 080°08'0 0.0
2015-May-05 03:33N 26°04' W 080°08'0 0.0
2015-May-05 02:33N 26°04' W 080°08'0 0.0
2015-May-05 01:33N 26°04' W 080°08'0 0.0
2015-May-05 00:33N 26°04' W 080°08'0 0.0
2015-May-04 23:33N 26°04' W 080°08'0 0.0
2015-May-04 22:33N 26°04' W 080°08'0 0.0
2015-May-04 21:33N 26°04' W 080°08'3 3.0
2015-May-04 20:33N 26°05' W 080°05'1110.6
2015-May-04 19:34N 25°59' W 079°56'1111.4
2015-May-04 18:33N 25°52' W 079°45'4 0.4
2015-May-04 07:29N 25°49' W 079°42'6 7.0
2015-May-04 06:33N 25°53' W 079°48'7 6.8
2015-May-04 05:33N 25°58' W 079°54'7 6.9
2015-May-04 04:33N 26°02' W 079°60'7 7.4
2015-May-04 03:33N 26°05' W 080°07'2 2.0
2015-May-04 02:33N 26°04' W 080°08'0 0.0
2015-May-04 01:33N 26°04' W 080°08'0 0.0
2015-May-04 00:33N 26°04' W 080°08'0 0.0
2015-May-03 23:33N 26°04' W 080°08'0 0.0
2015-May-03 22:33N 26°04' W 080°08'0 0.0
2015-May-03 21:33N 26°04' W 080°08'0 0.0
2015-May-03 20:33N 26°04' W 080°08'0 0.0
2015-May-03 19:33N 26°04' W 080°08'0 0.0
2015-May-03 18:33N 26°04' W 080°08'0 0.0
2015-May-03 17:33N 26°04' W 080°08'0 0.0
2015-May-03 16:33N 26°04' W 080°08'0 0.0
2015-May-03 15:33N 26°04' W 080°08'0 0.0
2015-May-03 14:33N 26°04' W 080°08'0 0.0
2015-May-03 13:33N 26°04' W 080°08'0 0.0
2015-May-03 12:33N 26°04' W 080°08'0 0.0
2015-May-03 11:33N 26°04' W 080°08'0 0.0
2015-May-03 10:33N 26°04' W 080°08'0 0.0
2015-May-03 09:33N 26°04' W 080°08'0 0.0
2015-May-03 08:33N 26°04' W 080°08'0 0.0
2015-May-03 07:33N 26°04' W 080°08'0 0.0
2015-May-03 06:33N 26°04' W 080°08'0 0.0
2015-May-03 05:33N 26°04' W 080°08'0 0.0
2015-May-03 04:33N 26°04' W 080°08'0 0.0
2015-May-03 03:33N 26°04' W 080°08'0 0.0
2015-May-03 02:33N 26°04' W 080°08'0 0.0
2015-May-03 01:33N 26°04' W 080°08'0 0.0
2015-May-03 00:32N 26°04' W 080°08'0 0.0
2015-May-02 23:33N 26°04' W 080°08'0 0.0
2015-May-02 22:33N 26°04' W 080°08'0 0.0
2015-May-02 21:33N 26°04' W 080°08'0 0.0
2015-May-02 20:33N 26°04' W 080°08'0 0.0
2015-May-02 19:33N 26°04' W 080°08'0 0.0
2015-May-02 18:33N 26°04' W 080°08'0 0.0
2015-May-02 17:33N 26°04' W 080°08'6 5.6
2015-May-02 16:33N 26°04' W 080°02'10 9.8
2015-May-02 15:33N 26°01' W 079°51'10 9.8
2015-May-02 14:33N 25°58' W 079°41'1110.2
2015-May-02 13:31N 25°54' W 079°30'13 0.3
2015-Apr-30 20:29N 26°05' W 079°36'9 9.4
2015-Apr-30 19:33N 26°05' W 079°46'9 9.4
2015-Apr-30 18:33N 26°05' W 079°56'9 9.5
2015-Apr-30 17:33N 26°05' W 080°07'2 1.8
2015-Apr-30 16:33N 26°04' W 080°08'0 0.0
2015-Apr-30 15:33N 26°04' W 080°08'0 0.0
2015-Apr-30 14:33N 26°04' W 080°08'0 0.0
2015-Apr-30 13:33N 26°04' W 080°08'0 0.0
2015-Apr-30 12:33N 26°04' W 080°08'3 3.1
2015-Apr-30 11:33N 26°06' W 080°05'7 6.7
2015-Apr-30 10:33N 26°03' W 079°58'10 9.9
2015-Apr-30 09:33N 26°01' W 079°48'10 9.8
2015-Apr-30 08:33N 25°58' W 079°37'5 0.1
2015-Apr-28 23:30N 25°59' W 079°42'8 8.0
2015-Apr-28 22:33N 26°01' W 079°50'9 8.7
2015-Apr-28 21:32N 26°04' W 079°60'6 6.4
2015-Apr-28 20:33N 26°04' W 080°07'1 1.0
2015-Apr-28 19:33N 26°04' W 080°08'0 0.0
2015-Apr-28 18:33N 26°04' W 080°08'0 0.0
2015-Apr-28 17:33N 26°04' W 080°08'0 0.0
2015-Apr-28 16:33N 26°04' W 080°08'0 0.0
2015-Apr-28 15:33N 26°04' W 080°08'0 0.0
2015-Apr-28 14:33N 26°04' W 080°08'0 0.0
2015-Apr-28 13:33N 26°04' W 080°08'2 2.2
2015-Apr-28 12:33N 26°06' W 080°07'1110.6
2015-Apr-28 11:33N 26°03' W 079°55'1110.7
2015-Apr-28 10:33N 25°60' W 079°44'1110.5
2015-Apr-28 09:33N 25°57' W 079°33'2510.3
2015-Apr-28 07:09N 25°50' W 079°06'10 9.8
2015-Apr-28 06:08N 25°47' W 078°55'84 9.8
2015-Apr-27 21:32N 25°50' W 077°22'12 9.6
2015-Apr-27 20:17N 25°51' W 077°09'44 5.6
2015-Apr-27 12:25N 26°34' W 077°05'100 5.8
2015-Apr-26 19:10N 26°02' W 078°51'710.7
2015-Apr-26 18:31N 26°04' W 078°58'1310.5
2015-Apr-26 17:15N 26°05' W 079°13'710.5
2015-Apr-26 16:33N 26°05' W 079°21'1110.5
2015-Apr-26 15:31N 26°05' W 079°33'1010.3
2015-Apr-26 14:33N 26°05' W 079°44'1010.3
2015-Apr-26 13:33N 26°05' W 079°56'10 9.8
2015-Apr-26 12:33N 26°06' W 080°06'2 2.3
2015-Apr-26 11:33N 26°04' W 080°08'0 0.0
2015-Apr-26 10:33N 26°04' W 080°08'0 0.0
2015-Apr-26 09:33N 26°04' W 080°08'0 0.0
2015-Apr-26 08:33N 26°04' W 080°08'0 0.0
2015-Apr-26 07:33N 26°04' W 080°08'0 0.0
2015-Apr-26 06:33N 26°04' W 080°08'0 0.0
2015-Apr-26 05:33N 26°04' W 080°08'0 0.0
2015-Apr-26 04:33N 26°04' W 080°08'0 0.0
2015-Apr-26 03:33N 26°04' W 080°08'0 0.0
2015-Apr-26 02:33N 26°04' W 080°08'0 0.0
2015-Apr-26 01:33N 26°04' W 080°08'0 0.0
2015-Apr-26 00:33N 26°04' W 080°08'0 0.0
2015-Apr-25 23:33N 26°04' W 080°08'0 0.0
2015-Apr-25 22:33N 26°04' W 080°08'0 0.0
2015-Apr-25 21:33N 26°04' W 080°08'1 1.1
2015-Apr-25 20:33N 26°04' W 080°07'8 8.4
2015-Apr-25 19:33N 26°03' W 079°57'  

Dump ship's entire track history